sensor_id;sensor_type;location;lat;lon;timestamp;pressure;altitude;pressure_sealevel;temperature;humidity
71109;BME280;59614;51.012;-1.648;2023-03-31T00:00:28;98281.13;;;10.18;100.00
71109;BME280;59614;51.012;-1.648;2023-03-31T00:02:55;98279.63;;;10.49;100.00
71109;BME280;59614;51.012;-1.648;2023-03-31T00:05:22;98267.34;;;10.13;100.00
71109;BME280;59614;51.012;-1.648;2023-03-31T00:07:55;98255.94;;;10.12;100.00
71109;BME280;59614;51.012;-1.648;2023-03-31T00:10:33;98250.75;;;10.11;100.00
71109;BME280;59614;51.012;-1.648;2023-03-31T00:13:02;98258.72;;;10.46;100.00
71109;BME280;59614;51.012;-1.648;2023-03-31T00:15:28;98251.41;;;10.51;100.00
71109;BME280;59614;51.012;-1.648;2023-03-31T00:17:53;98241.31;;;10.42;100.00
71109;BME280;59614;51.012;-1.648;2023-03-31T00:20:19;98221.59;;;10.49;100.00
71109;BME280;59614;51.012;-1.648;2023-03-31T00:22:44;98224.09;;;10.34;100.00
71109;BME280;59614;51.012;-1.648;2023-03-31T00:25:14;98208.41;;;10.31;100.00
71109;BME280;59614;51.012;-1.648;2023-03-31T00:27:43;98180.69;;;10.24;100.00
71109;BME280;59614;51.012;-1.648;2023-03-31T00:30:11;98192.38;;;10.18;100.00
71109;BME280;59614;51.012;-1.648;2023-03-31T00:32:36;98192.91;;;10.25;100.00
71109;BME280;59614;51.012;-1.648;2023-03-31T00:35:02;98182.22;;;10.46;100.00
71109;BME280;59614;51.012;-1.648;2023-03-31T00:37:29;98170.91;;;10.44;100.00
71109;BME280;59614;51.012;-1.648;2023-03-31T00:39:55;98159.44;;;10.45;100.00
71109;BME280;59614;51.012;-1.648;2023-03-31T00:42:21;98150.59;;;10.46;100.00
71109;BME280;59614;51.012;-1.648;2023-03-31T00:47:51;98138.78;;;10.53;100.00
71109;BME280;59614;51.012;-1.648;2023-03-31T00:50:25;98123.63;;;10.57;100.00
71109;BME280;59614;51.012;-1.648;2023-03-31T00:52:57;98109.41;;;10.59;100.00
71109;BME280;59614;51.012;-1.648;2023-03-31T00:55:30;98109.94;;;10.32;100.00
71109;BME280;59614;51.012;-1.648;2023-03-31T00:57:59;98100.78;;;10.40;100.00
71109;BME280;59614;51.012;-1.648;2023-03-31T01:00:26;98096.19;;;10.43;100.00
71109;BME280;59614;51.012;-1.648;2023-03-31T01:02:55;98093.16;;;10.51;100.00
71109;BME280;59614;51.012;-1.648;2023-03-31T01:05:27;98077.94;;;10.40;100.00
71109;BME280;59614;51.012;-1.648;2023-03-31T01:07:54;98071.22;;;10.50;100.00
71109;BME280;59614;51.012;-1.648;2023-03-31T01:10:20;98086.22;;;10.32;100.00
71109;BME280;59614;51.012;-1.648;2023-03-31T01:12:50;98067.44;;;10.39;100.00
71109;BME280;59614;51.012;-1.648;2023-03-31T01:15:17;98051.78;;;10.35;100.00
71109;BME280;59614;51.012;-1.648;2023-03-31T01:17:43;98047.91;;;10.43;100.00
71109;BME280;59614;51.012;-1.648;2023-03-31T01:28:48;98000.72;;;10.36;100.00
71109;BME280;59614;51.012;-1.648;2023-03-31T01:34:51;97974.53;;;10.33;100.00
71109;BME280;59614;51.012;-1.648;2023-03-31T01:43:18;97962.84;;;10.39;100.00
71109;BME280;59614;51.012;-1.648;2023-03-31T01:49:33;97935.59;;;10.39;100.00
71109;BME280;59614;51.012;-1.648;2023-03-31T01:56:47;97910.88;;;10.41;100.00
71109;BME280;59614;51.012;-1.648;2023-03-31T01:59:16;97899.84;;;10.17;100.00
71109;BME280;59614;51.012;-1.648;2023-03-31T02:01:55;97887.28;;;10.22;100.00
71109;BME280;59614;51.012;-1.648;2023-03-31T02:04:26;97872.81;;;10.29;100.00
71109;BME280;59614;51.012;-1.648;2023-03-31T02:06:58;97877.31;;;10.27;100.00
71109;BME280;59614;51.012;-1.648;2023-03-31T02:09:31;97862.78;;;10.20;100.00
71109;BME280;59614;51.012;-1.648;2023-03-31T02:11:59;97876.81;;;10.04;100.00
71109;BME280;59614;51.012;-1.648;2023-03-31T02:14:29;97864.34;;;10.24;100.00
71109;BME280;59614;51.012;-1.648;2023-03-31T02:16:57;97863.78;;;9.85;100.00
71109;BME280;59614;51.012;-1.648;2023-03-31T02:19:32;97853.44;;;9.98;100.00
71109;BME280;59614;51.012;-1.648;2023-03-31T02:22:01;97851.88;;;10.26;100.00
71109;BME280;59614;51.012;-1.648;2023-03-31T02:24:30;97846.56;;;10.12;100.00
71109;BME280;59614;51.012;-1.648;2023-03-31T02:27:05;97843.06;;;10.11;100.00
71109;BME280;59614;51.012;-1.648;2023-03-31T02:29:31;97836.63;;;10.01;100.00
71109;BME280;59614;51.012;-1.648;2023-03-31T02:34:50;97815.38;;;9.88;100.00
71109;BME280;59614;51.012;-1.648;2023-03-31T02:37:15;97817.75;;;9.93;100.00
71109;BME280;59614;51.012;-1.648;2023-03-31T02:39:43;97813.66;;;10.03;100.00
71109;BME280;59614;51.012;-1.648;2023-03-31T02:42:10;97812.06;;;10.00;100.00
71109;BME280;59614;51.012;-1.648;2023-03-31T02:44:37;97792.50;;;9.88;100.00
71109;BME280;59614;51.012;-1.648;2023-03-31T02:47:10;97799.72;;;10.01;100.00
71109;BME280;59614;51.012;-1.648;2023-03-31T02:49:39;97797.00;;;10.02;100.00
71109;BME280;59614;51.012;-1.648;2023-03-31T02:55:12;97791.47;;;9.91;100.00
71109;BME280;59614;51.012;-1.648;2023-03-31T03:16:57;97730.88;;;9.91;100.00
71109;BME280;59614;51.012;-1.648;2023-03-31T03:19:24;97731.53;;;10.11;100.00
71109;BME280;59614;51.012;-1.648;2023-03-31T03:21:50;97725.28;;;9.97;100.00
71109;BME280;59614;51.012;-1.648;2023-03-31T03:24:16;97711.34;;;9.95;100.00
71109;BME280;59614;51.012;-1.648;2023-03-31T03:26:43;97703.66;;;10.07;100.00
71109;BME280;59614;51.012;-1.648;2023-03-31T03:29:12;97708.03;;;10.22;100.00
71109;BME280;59614;51.012;-1.648;2023-03-31T03:31:39;97697.13;;;9.98;100.00
71109;BME280;59614;51.012;-1.648;2023-03-31T03:34:05;97688.72;;;9.91;100.00
71109;BME280;59614;51.012;-1.648;2023-03-31T03:36:31;97684.81;;;9.98;100.00
71109;BME280;59614;51.012;-1.648;2023-03-31T03:38:57;97689.72;;;10.04;100.00
71109;BME280;59614;51.012;-1.648;2023-03-31T03:41:23;97679.88;;;9.92;100.00
71109;BME280;59614;51.012;-1.648;2023-03-31T03:43:48;97674.09;;;10.01;100.00
71109;BME280;59614;51.012;-1.648;2023-03-31T03:46:14;97662.03;;;9.97;100.00
71109;BME280;59614;51.012;-1.648;2023-03-31T03:48:39;97662.81;;;10.14;100.00
71109;BME280;59614;51.012;-1.648;2023-03-31T03:51:05;97660.13;;;9.85;100.00
71109;BME280;59614;51.012;-1.648;2023-03-31T03:53:31;97652.66;;;10.08;100.00
71109;BME280;59614;51.012;-1.648;2023-03-31T03:55:56;97640.78;;;10.15;100.00
71109;BME280;59614;51.012;-1.648;2023-03-31T03:58:23;97640.28;;;9.94;100.00
71109;BME280;59614;51.012;-1.648;2023-03-31T04:00:49;97624.69;;;10.19;100.00
71109;BME280;59614;51.012;-1.648;2023-03-31T04:03:14;97622.81;;;10.07;100.00
71109;BME280;59614;51.012;-1.648;2023-03-31T04:05:41;97617.88;;;9.86;100.00
71109;BME280;59614;51.012;-1.648;2023-03-31T04:08:06;97613.88;;;10.10;100.00
71109;BME280;59614;51.012;-1.648;2023-03-31T04:10:33;97603.84;;;9.86;100.00
71109;BME280;59614;51.012;-1.648;2023-03-31T04:12:58;97603.84;;;9.86;100.00
71109;BME280;59614;51.012;-1.648;2023-03-31T04:15:24;97608.91;;;9.74;100.00
71109;BME280;59614;51.012;-1.648;2023-03-31T04:17:49;97586.97;;;10.19;100.00
71109;BME280;59614;51.012;-1.648;2023-03-31T04:20:19;97579.16;;;10.03;100.00
71109;BME280;59614;51.012;-1.648;2023-03-31T04:22:45;97591.66;;;9.99;100.00
71109;BME280;59614;51.012;-1.648;2023-03-31T04:25:15;97579.34;;;10.14;100.00
71109;BME280;59614;51.012;-1.648;2023-03-31T04:27:50;97570.94;;;9.93;100.00
71109;BME280;59614;51.012;-1.648;2023-03-31T04:30:24;97562.78;;;10.12;100.00
71109;BME280;59614;51.012;-1.648;2023-03-31T04:32:57;97575.19;;;10.10;100.00
71109;BME280;59614;51.012;-1.648;2023-03-31T04:35:24;97565.09;;;10.02;100.00
71109;BME280;59614;51.012;-1.648;2023-03-31T04:37:51;97566.44;;;10.10;100.00
71109;BME280;59614;51.012;-1.648;2023-03-31T04:40:24;97558.63;;;10.37;100.00
71109;BME280;59614;51.012;-1.648;2023-03-31T04:42:50;97561.44;;;10.19;100.00
71109;BME280;59614;51.012;-1.648;2023-03-31T04:45:16;97555.72;;;9.98;100.00
71109;BME280;59614;51.012;-1.648;2023-03-31T04:47:42;97563.34;;;10.03;100.00
71109;BME280;59614;51.012;-1.648;2023-03-31T04:50:08;97541.59;;;10.14;100.00
71109;BME280;59614;51.012;-1.648;2023-03-31T04:52:34;97536.88;;;10.04;100.00
71109;BME280;59614;51.012;-1.648;2023-03-31T04:55:00;97542.63;;;10.11;100.00
71109;BME280;59614;51.012;-1.648;2023-03-31T04:57:25;97535.84;;;10.22;100.00
71109;BME280;59614;51.012;-1.648;2023-03-31T04:59:51;97551.31;;;10.28;100.00
71109;BME280;59614;51.012;-1.648;2023-03-31T05:02:16;97538.41;;;10.09;100.00
71109;BME280;59614;51.012;-1.648;2023-03-31T05:04:50;97551.03;;;10.32;100.00
71109;BME280;59614;51.012;-1.648;2023-03-31T05:07:17;97538.41;;;10.09;100.00
71109;BME280;59614;51.012;-1.648;2023-03-31T05:09:43;97534.06;;;10.22;100.00
71109;BME280;59614;51.012;-1.648;2023-03-31T05:12:09;97546.69;;;10.31;100.00
71109;BME280;59614;51.012;-1.648;2023-03-31T05:14:35;97536.53;;;10.11;100.00
71109;BME280;59614;51.012;-1.648;2023-03-31T05:17:00;97543.56;;;10.10;100.00
71109;BME280;59614;51.012;-1.648;2023-03-31T05:19:26;97537.72;;;10.19;100.00
71109;BME280;59614;51.012;-1.648;2023-03-31T05:21:51;97551.06;;;10.47;100.00
71109;BME280;59614;51.012;-1.648;2023-03-31T05:24:17;97534.81;;;10.10;100.00
71109;BME280;59614;51.012;-1.648;2023-03-31T05:26:42;97540.44;;;10.03;100.00
71109;BME280;59614;51.012;-1.648;2023-03-31T05:29:12;97547.25;;;10.22;100.00
71109;BME280;59614;51.012;-1.648;2023-03-31T05:31:40;97541.34;;;10.18;100.00
71109;BME280;59614;51.012;-1.648;2023-03-31T05:34:05;97546.19;;;10.10;100.00
71109;BME280;59614;51.012;-1.648;2023-03-31T05:36:31;97539.13;;;9.96;100.00
71109;BME280;59614;51.012;-1.648;2023-03-31T05:38:56;97542.59;;;9.97;100.00
71109;BME280;59614;51.012;-1.648;2023-03-31T05:41:22;97544.41;;;10.25;100.00
71109;BME280;59614;51.012;-1.648;2023-03-31T05:43:47;97546.09;;;10.26;100.00
71109;BME280;59614;51.012;-1.648;2023-03-31T05:46:13;97553.63;;;10.03;100.00
71109;BME280;59614;51.012;-1.648;2023-03-31T05:48:38;97536.97;;;10.03;100.00
71109;BME280;59614;51.012;-1.648;2023-03-31T05:51:04;97541.22;;;10.20;100.00
71109;BME280;59614;51.012;-1.648;2023-03-31T05:53:30;97534.84;;;10.24;100.00
71109;BME280;59614;51.012;-1.648;2023-03-31T05:55:57;97538.97;;;10.28;100.00
71109;BME280;59614;51.012;-1.648;2023-03-31T05:58:23;97530.09;;;10.29;100.00
71109;BME280;59614;51.012;-1.648;2023-03-31T06:00:49;97532.75;;;10.15;100.00
71109;BME280;59614;51.012;-1.648;2023-03-31T06:03:18;97528.41;;;9.99;100.00
71109;BME280;59614;51.012;-1.648;2023-03-31T06:05:49;97524.00;;;10.00;100.00
71109;BME280;59614;51.012;-1.648;2023-03-31T06:08:18;97536.31;;;10.14;100.00
71109;BME280;59614;51.012;-1.648;2023-03-31T06:10:43;97524.38;;;10.37;100.00
71109;BME280;59614;51.012;-1.648;2023-03-31T06:13:09;97521.72;;;10.08;100.00
71109;BME280;59614;51.012;-1.648;2023-03-31T06:15:34;97530.69;;;10.20;100.00
71109;BME280;59614;51.012;-1.648;2023-03-31T06:18:00;97523.13;;;10.14;100.00
71109;BME280;59614;51.012;-1.648;2023-03-31T06:20:25;97526.47;;;10.17;100.00
71109;BME280;59614;51.012;-1.648;2023-03-31T06:22:51;97521.44;;;10.27;100.00
71109;BME280;59614;51.012;-1.648;2023-03-31T06:25:16;97526.34;;;10.19;100.00
71109;BME280;59614;51.012;-1.648;2023-03-31T06:27:41;97526.34;;;10.19;100.00
71109;BME280;59614;51.012;-1.648;2023-03-31T06:30:08;97529.00;;;10.19;100.00
71109;BME280;59614;51.012;-1.648;2023-03-31T06:32:33;97515.63;;;10.08;100.00
71109;BME280;59614;51.012;-1.648;2023-03-31T06:34:59;97529.94;;;10.32;100.00
71109;BME280;59614;51.012;-1.648;2023-03-31T06:37:24;97520.06;;;10.07;100.00
71109;BME280;59614;51.012;-1.648;2023-03-31T06:39:50;97528.13;;;10.33;100.00
71109;BME280;59614;51.012;-1.648;2023-03-31T06:42:15;97525.50;;;10.18;100.00
71109;BME280;59614;51.012;-1.648;2023-03-31T06:44:40;97529.63;;;10.23;100.00
71109;BME280;59614;51.012;-1.648;2023-03-31T06:47:06;97516.38;;;10.24;100.00
71109;BME280;59614;51.012;-1.648;2023-03-31T06:49:31;97524.19;;;10.26;100.00
71109;BME280;59614;51.012;-1.648;2023-03-31T06:51:57;97534.66;;;10.42;100.00
71109;BME280;59614;51.012;-1.648;2023-03-31T06:54:22;97534.84;;;10.24;100.00
71109;BME280;59614;51.012;-1.648;2023-03-31T06:56:48;97541.16;;;10.50;100.00
71109;BME280;59614;51.012;-1.648;2023-03-31T06:59:13;97537.53;;;10.23;100.00
71109;BME280;59614;51.012;-1.648;2023-03-31T07:01:38;97536.06;;;10.18;100.00
71109;BME280;59614;51.012;-1.648;2023-03-31T07:04:06;97546.69;;;10.17;100.00
71109;BME280;59614;51.012;-1.648;2023-03-31T07:06:32;97541.88;;;10.24;100.00
71109;BME280;59614;51.012;-1.648;2023-03-31T07:08:58;97540.09;;;10.24;100.00
71109;BME280;59614;51.012;-1.648;2023-03-31T07:11:23;97546.88;;;10.28;100.00
71109;BME280;59614;51.012;-1.648;2023-03-31T07:13:49;97537.66;;;10.21;100.00
71109;BME280;59614;51.012;-1.648;2023-03-31T07:16:14;97546.91;;;10.43;100.00
71109;BME280;59614;51.012;-1.648;2023-03-31T07:18:40;97550.75;;;10.52;100.00
71109;BME280;59614;51.012;-1.648;2023-03-31T07:21:06;97547.56;;;10.46;100.00
71109;BME280;59614;51.012;-1.648;2023-03-31T07:23:32;97545.28;;;10.55;100.00
71109;BME280;59614;51.012;-1.648;2023-03-31T07:25:58;97554.00;;;10.70;100.00
71109;BME280;59614;51.012;-1.648;2023-03-31T07:28:30;97555.34;;;10.62;100.00
71109;BME280;59614;51.012;-1.648;2023-03-31T07:30:55;97550.84;;;10.35;100.00
71109;BME280;59614;51.012;-1.648;2023-03-31T07:33:21;97548.00;;;10.53;100.00
71109;BME280;59614;51.012;-1.648;2023-03-31T07:35:46;97555.63;;;10.43;100.00
71109;BME280;59614;51.012;-1.648;2023-03-31T07:38:12;97560.16;;;10.70;100.00
71109;BME280;59614;51.012;-1.648;2023-03-31T07:40:38;97550.09;;;10.48;100.00
71109;BME280;59614;51.012;-1.648;2023-03-31T07:43:04;97556.63;;;10.84;100.00
71109;BME280;59614;51.012;-1.648;2023-03-31T07:45:30;97556.88;;;10.52;100.00
71109;BME280;59614;51.012;-1.648;2023-03-31T07:47:56;97562.88;;;10.69;100.00
71109;BME280;59614;51.012;-1.648;2023-03-31T07:50:22;97559.09;;;10.73;100.00
71109;BME280;59614;51.012;-1.648;2023-03-31T07:52:48;97566.53;;;10.80;100.00
71109;BME280;59614;51.012;-1.648;2023-03-31T07:55:14;97565.13;;;10.60;100.00
71109;BME280;59614;51.012;-1.648;2023-03-31T07:57:39;97574.34;;;10.82;100.00
71109;BME280;59614;51.012;-1.648;2023-03-31T08:00:07;97573.44;;;10.69;100.00
71109;BME280;59614;51.012;-1.648;2023-03-31T08:02:36;97584.34;;;10.91;100.00
71109;BME280;59614;51.012;-1.648;2023-03-31T08:05:02;97580.06;;;11.03;100.00
71109;BME280;59614;51.012;-1.648;2023-03-31T08:07:28;97582.50;;;11.06;100.00
71109;BME280;59614;51.012;-1.648;2023-03-31T08:09:55;97583.31;;;10.79;100.00
71109;BME280;59614;51.012;-1.648;2023-03-31T08:12:21;97584.22;;;10.93;100.00
71109;BME280;59614;51.012;-1.648;2023-03-31T08:14:47;97589.03;;;10.86;100.00
71109;BME280;59614;51.012;-1.648;2023-03-31T08:17:13;97583.69;;;10.73;100.00
71109;BME280;59614;51.012;-1.648;2023-03-31T08:19:38;97592.56;;;10.58;100.00
71109;BME280;59614;51.012;-1.648;2023-03-31T08:22:03;97600.66;;;10.69;100.00
71109;BME280;59614;51.012;-1.648;2023-03-31T08:24:29;97596.50;;;10.79;100.00
71109;BME280;59614;51.012;-1.648;2023-03-31T08:26:54;97592.63;;;10.71;100.00
71109;BME280;59614;51.012;-1.648;2023-03-31T08:29:20;97603.75;;;10.61;100.00
71109;BME280;59614;51.012;-1.648;2023-03-31T08:31:45;97605.28;;;10.80;100.00
71109;BME280;59614;51.012;-1.648;2023-03-31T08:34:11;97611.00;;;11.28;100.00
71109;BME280;59614;51.012;-1.648;2023-03-31T08:36:36;97610.97;;;11.01;100.00
71109;BME280;59614;51.012;-1.648;2023-03-31T08:39:02;97605.06;;;11.52;100.00
71109;BME280;59614;51.012;-1.648;2023-03-31T08:46:45;97613.72;;;11.54;100.00
71109;BME280;59614;51.012;-1.648;2023-03-31T08:49:17;97605.06;;;11.52;100.00
71109;BME280;59614;51.012;-1.648;2023-03-31T08:52:03;97629.53;;;11.14;100.00
71109;BME280;59614;51.012;-1.648;2023-03-31T08:54:32;97618.44;;;11.49;100.00
71109;BME280;59614;51.012;-1.648;2023-03-31T08:57:02;97623.31;;;11.42;100.00
71109;BME280;59614;51.012;-1.648;2023-03-31T08:59:34;97625.19;;;11.68;100.00
71109;BME280;59614;51.012;-1.648;2023-03-31T09:02:13;97624.19;;;11.56;100.00
71109;BME280;59614;51.012;-1.648;2023-03-31T09:08:10;97629.38;;;11.57;100.00
71109;BME280;59614;51.012;-1.648;2023-03-31T09:13:13;97631.81;;;11.61;100.00
71109;BME280;59614;51.012;-1.648;2023-03-31T09:16:05;97644.03;;;11.76;100.00
71109;BME280;59614;51.012;-1.648;2023-03-31T09:18:36;97658.28;;;11.46;100.00
71109;BME280;59614;51.012;-1.648;2023-03-31T09:21:23;97649.84;;;11.81;100.00
71109;BME280;59614;51.012;-1.648;2023-03-31T09:23:52;97660.06;;;11.73;100.00
71109;BME280;59614;51.012;-1.648;2023-03-31T09:28:54;97663.91;;;11.54;100.00
71109;BME280;59614;51.012;-1.648;2023-03-31T09:31:22;97673.34;;;11.58;100.00
71109;BME280;59614;51.012;-1.648;2023-03-31T09:33:53;97672.09;;;11.64;100.00
71109;BME280;59614;51.012;-1.648;2023-03-31T09:36:23;97681.91;;;11.35;100.00
71109;BME280;59614;51.012;-1.648;2023-03-31T09:38:48;97682.28;;;11.28;100.00
71109;BME280;59614;51.012;-1.648;2023-03-31T09:41:15;97690.94;;;11.31;100.00
71109;BME280;59614;51.012;-1.648;2023-03-31T09:43:42;97687.84;;;11.24;100.00
71109;BME280;59614;51.012;-1.648;2023-03-31T09:46:20;97692.16;;;11.39;100.00
71109;BME280;59614;51.012;-1.648;2023-03-31T09:48:54;97698.38;;;11.53;100.00
71109;BME280;59614;51.012;-1.648;2023-03-31T09:51:26;97706.53;;;11.63;100.00
71109;BME280;59614;51.012;-1.648;2023-03-31T09:53:59;97705.94;;;11.72;100.00
71109;BME280;59614;51.012;-1.648;2023-03-31T09:56:52;97715.53;;;11.46;100.00
71109;BME280;59614;51.012;-1.648;2023-03-31T09:59:22;97727.78;;;11.47;100.00
71109;BME280;59614;51.012;-1.648;2023-03-31T10:01:52;97733.09;;;11.74;100.00
71109;BME280;59614;51.012;-1.648;2023-03-31T10:04:27;97745.03;;;11.52;100.00
71109;BME280;59614;51.012;-1.648;2023-03-31T10:06:55;97737.28;;;12.05;100.00
71109;BME280;59614;51.012;-1.648;2023-03-31T10:09:29;97746.31;;;11.74;100.00
71109;BME280;59614;51.012;-1.648;2023-03-31T10:11:56;97752.69;;;11.84;100.00
71109;BME280;59614;51.012;-1.648;2023-03-31T10:14:32;97757.19;;;11.69;100.00
71109;BME280;59614;51.012;-1.648;2023-03-31T10:17:03;97762.59;;;12.10;100.00
71109;BME280;59614;51.012;-1.648;2023-03-31T10:19:35;97773.56;;;12.16;100.00
71109;BME280;59614;51.012;-1.648;2023-03-31T10:24:43;97779.72;;;12.17;100.00
71109;BME280;59614;51.012;-1.648;2023-03-31T10:29:44;97790.22;;;12.59;100.00
71109;BME280;59614;51.012;-1.648;2023-03-31T10:34:54;97799.13;;;12.30;100.00
71109;BME280;59614;51.012;-1.648;2023-03-31T10:37:22;97813.00;;;12.34;100.00
71109;BME280;59614;51.012;-1.648;2023-03-31T10:40:03;97800.06;;;12.29;100.00
71109;BME280;59614;51.012;-1.648;2023-03-31T10:42:34;97808.50;;;12.22;100.00
71109;BME280;59614;51.012;-1.648;2023-03-31T10:45:12;97818.44;;;12.45;100.00
71109;BME280;59614;51.012;-1.648;2023-03-31T10:47:38;97817.03;;;12.40;100.00
71109;BME280;59614;51.012;-1.648;2023-03-31T10:50:12;97825.56;;;12.30;100.00
71109;BME280;59614;51.012;-1.648;2023-03-31T10:52:47;97833.56;;;12.43;100.00
71109;BME280;59614;51.012;-1.648;2023-03-31T10:55:27;97841.50;;;12.56;100.00
71109;BME280;59614;51.012;-1.648;2023-03-31T11:01:28;97866.56;;;12.50;100.00
71109;BME280;59614;51.012;-1.648;2023-03-31T11:09:27;97889.09;;;12.43;100.00
71109;BME280;59614;51.012;-1.648;2023-03-31T11:15:12;97893.44;;;12.44;100.00
71109;BME280;59614;51.012;-1.648;2023-03-31T11:20:35;97891.59;;;12.32;100.00
71109;BME280;59614;51.012;-1.648;2023-03-31T11:31:51;97919.50;;;12.09;100.00
71109;BME280;59614;51.012;-1.648;2023-03-31T11:37:18;97939.78;;;12.64;100.00
71109;BME280;59614;51.012;-1.648;2023-03-31T11:42:28;97950.97;;;12.82;100.00
71109;BME280;59614;51.012;-1.648;2023-03-31T11:45:18;97951.41;;;12.62;100.00
71109;BME280;59614;51.012;-1.648;2023-03-31T11:47:49;97953.59;;;12.13;100.00
71109;BME280;59614;51.012;-1.648;2023-03-31T11:50:20;97961.28;;;12.45;100.00
71109;BME280;59614;51.012;-1.648;2023-03-31T11:53:00;97962.16;;;12.31;100.00
71109;BME280;59614;51.012;-1.648;2023-03-31T11:55:28;97965.00;;;12.14;100.00
71109;BME280;59614;51.012;-1.648;2023-03-31T12:00:45;97973.47;;;12.33;100.00
71109;BME280;59614;51.012;-1.648;2023-03-31T12:06:14;97989.84;;;12.26;100.00
71109;BME280;59614;51.012;-1.648;2023-03-31T12:11:30;97995.50;;;12.19;100.00
71109;BME280;59614;51.012;-1.648;2023-03-31T12:16:45;98018.34;;;11.92;100.00
71109;BME280;59614;51.012;-1.648;2023-03-31T12:19:23;98014.25;;;11.86;100.00
71109;BME280;59614;51.012;-1.648;2023-03-31T12:22:05;98018.50;;;11.88;100.00
71109;BME280;59614;51.012;-1.648;2023-03-31T12:24:35;98026.97;;;11.65;100.00
71109;BME280;59614;51.012;-1.648;2023-03-31T12:27:13;98037.16;;;11.71;100.00
71109;BME280;59614;51.012;-1.648;2023-03-31T12:29:47;98035.78;;;11.49;100.00
71109;BME280;59614;51.012;-1.648;2023-03-31T12:32:16;98039.72;;;11.42;100.00
71109;BME280;59614;51.012;-1.648;2023-03-31T12:34:58;98049.97;;;11.48;100.00
71109;BME280;59614;51.012;-1.648;2023-03-31T12:52:04;98076.13;;;11.37;100.00
71109;BME280;59614;51.012;-1.648;2023-03-31T12:57:35;98084.81;;;11.39;100.00
71109;BME280;59614;51.012;-1.648;2023-03-31T13:02:34;98097.44;;;11.34;100.00
71109;BME280;59614;51.012;-1.648;2023-03-31T13:08:01;98104.69;;;11.14;100.00
71109;BME280;59614;51.012;-1.648;2023-03-31T13:10:29;98130.31;;;11.28;100.00
71109;BME280;59614;51.012;-1.648;2023-03-31T13:13:05;98115.00;;;11.19;100.00
71109;BME280;59614;51.012;-1.648;2023-03-31T13:15:37;98125.13;;;11.10;100.00
71109;BME280;59614;51.012;-1.648;2023-03-31T13:18:04;98130.13;;;10.99;100.00
71109;BME280;59614;51.012;-1.648;2023-03-31T13:20:34;98136.78;;;10.90;100.00
71109;BME280;59614;51.012;-1.648;2023-03-31T13:28:24;98148.03;;;10.94;100.00
71109;BME280;59614;51.012;-1.648;2023-03-31T13:30:51;98166.16;;;11.16;100.00
71109;BME280;59614;51.012;-1.648;2023-03-31T13:38:43;98169.16;;;11.26;100.00
71109;BME280;59614;51.012;-1.648;2023-03-31T13:52:11;98191.09;;;10.94;100.00
71109;BME280;59614;51.012;-1.648;2023-03-31T13:55:03;98204.25;;;11.12;100.00
71109;BME280;59614;51.012;-1.648;2023-03-31T14:05:46;98227.41;;;11.07;100.00
71109;BME280;59614;51.012;-1.648;2023-03-31T14:08:50;98230.41;;;11.33;100.00
71109;BME280;59614;51.012;-1.648;2023-03-31T14:11:26;98224.97;;;11.52;100.00
71109;BME280;59614;51.012;-1.648;2023-03-31T14:14:11;98223.31;;;11.33;100.00
71109;BME280;59614;51.012;-1.648;2023-03-31T14:16:49;98219.34;;;11.42;100.00
71109;BME280;59614;51.012;-1.648;2023-03-31T14:22:40;98243.28;;;11.55;100.00
71109;BME280;59614;51.012;-1.648;2023-03-31T14:28:29;98260.66;;;11.43;100.00
71109;BME280;59614;51.012;-1.648;2023-03-31T14:31:49;98272.53;;;11.18;100.00
71109;BME280;59614;51.012;-1.648;2023-03-31T14:37:04;98274.22;;;11.53;100.00
71109;BME280;59614;51.012;-1.648;2023-03-31T14:39:50;98265.44;;;11.52;100.00
71109;BME280;59614;51.012;-1.648;2023-03-31T14:42:20;98277.69;;;11.85;100.00
71109;BME280;59614;51.012;-1.648;2023-03-31T14:44:47;98258.44;;;12.15;100.00
71109;BME280;59614;51.012;-1.648;2023-03-31T14:47:20;98274.72;;;11.92;100.00
71109;BME280;59614;51.012;-1.648;2023-03-31T14:49:46;98286.41;;;11.71;100.00
71109;BME280;59614;51.012;-1.648;2023-03-31T14:52:18;98282.63;;;11.43;100.00
71109;BME280;59614;51.012;-1.648;2023-03-31T14:54:45;98287.75;;;11.31;100.00
71109;BME280;59614;51.012;-1.648;2023-03-31T14:57:37;98299.38;;;11.26;100.00
71109;BME280;59614;51.012;-1.648;2023-03-31T15:00:05;98309.06;;;11.10;100.00
71109;BME280;59614;51.012;-1.648;2023-03-31T15:02:37;98314.25;;;11.11;100.00
71109;BME280;59614;51.012;-1.648;2023-03-31T15:05:13;98314.50;;;11.07;100.00
71109;BME280;59614;51.012;-1.648;2023-03-31T15:07:43;98312.41;;;11.13;100.00
71109;BME280;59614;51.012;-1.648;2023-03-31T15:10:17;98316.19;;;11.25;100.00
71109;BME280;59614;51.012;-1.648;2023-03-31T15:12:46;98329.94;;;11.15;100.00
71109;BME280;59614;51.012;-1.648;2023-03-31T15:15:13;98335.38;;;11.11;100.00
71109;BME280;59614;51.012;-1.648;2023-03-31T15:17:40;98334.53;;;11.11;100.00
71109;BME280;59614;51.012;-1.648;2023-03-31T15:20:36;98338.88;;;11.46;100.00
71109;BME280;59614;51.012;-1.648;2023-03-31T15:23:16;98340.25;;;11.37;100.00
71109;BME280;59614;51.012;-1.648;2023-03-31T15:25:45;98344.38;;;11.25;100.00
71109;BME280;59614;51.012;-1.648;2023-03-31T15:28:13;98345.53;;;11.19;100.00
71109;BME280;59614;51.012;-1.648;2023-03-31T15:30:39;98329.81;;;11.00;100.00
71109;BME280;59614;51.012;-1.648;2023-03-31T15:33:06;98339.72;;;11.30;100.00
71109;BME280;59614;51.012;-1.648;2023-03-31T15:35:35;98356.59;;;11.10;100.00
71109;BME280;59614;51.012;-1.648;2023-03-31T15:38:03;98358.31;;;10.93;100.00
71109;BME280;59614;51.012;-1.648;2023-03-31T15:40:37;98367.69;;;10.99;100.00
71109;BME280;59614;51.012;-1.648;2023-03-31T15:43:18;98367.75;;;11.15;100.00
71109;BME280;59614;51.012;-1.648;2023-03-31T15:45:53;98380.31;;;11.27;100.00
71109;BME280;59614;51.012;-1.648;2023-03-31T15:50:50;98393.31;;;11.15;100.00
71109;BME280;59614;51.012;-1.648;2023-03-31T15:53:30;98387.34;;;11.11;100.00